createdAt,value
2022-12-28T00:01:53.426Z,1.60
2022-12-28T00:04:21.483Z,1.50
2022-12-28T00:06:50.769Z,0.77
2022-12-28T00:09:20.413Z,0.97
2022-12-28T00:11:48.300Z,1.27
2022-12-28T00:14:16.119Z,2.40
2022-12-28T00:16:44.952Z,1.53
2022-12-28T00:19:14.897Z,2.50
2022-12-28T00:21:43.218Z,1.27
2022-12-28T00:24:18.844Z,1.30
2022-12-28T00:26:48.087Z,1.57
2022-12-28T00:29:16.365Z,2.20
2022-12-28T00:31:45.696Z,1.63
2022-12-28T00:34:13.703Z,4.30
2022-12-28T00:37:09.902Z,0.73
2022-12-28T00:39:29.542Z,2.87
2022-12-28T00:41:58.815Z,1.77
2022-12-28T00:44:26.785Z,1.23
2022-12-28T00:46:54.636Z,2.17
2022-12-28T00:49:22.697Z,1.50
2022-12-28T00:51:50.489Z,0.70
2022-12-28T00:54:18.392Z,1.63
2022-12-28T00:56:46.451Z,1.70
2022-12-28T00:59:15.679Z,1.07
2022-12-28T01:01:43.637Z,0.53
2022-12-28T01:04:11.622Z,2.20
2022-12-28T01:06:40.064Z,4.20
2022-12-28T01:09:08.087Z,0.80
2022-12-28T01:11:36.050Z,1.93
2022-12-28T01:14:03.876Z,1.70
2022-12-28T01:16:35.780Z,1.00
2022-12-28T01:19:05.331Z,2.67
2022-12-28T01:21:34.359Z,2.13
2022-12-28T01:24:04.347Z,3.23
2022-12-28T01:26:32.718Z,2.83
2022-12-28T01:29:01.032Z,1.50
2022-12-28T01:31:29.202Z,0.87
2022-12-28T01:33:58.562Z,1.40
2022-12-28T01:36:31.513Z,2.37
2022-12-28T01:39:00.746Z,1.10
2022-12-28T01:41:29.866Z,1.80
2022-12-28T01:44:33.793Z,1.37
2022-12-28T01:47:05.907Z,3.47
2022-12-28T01:49:40.604Z,1.43
2022-12-28T01:52:13.855Z,1.13
2022-12-28T01:54:46.521Z,3.40
2022-12-28T01:57:16.355Z,0.70
2022-12-28T01:59:51.713Z,0.97
2022-12-28T02:02:20.275Z,1.67
2022-12-28T02:04:50.449Z,2.27
2022-12-28T02:07:31.465Z,1.03
2022-12-28T02:10:40.863Z,1.60
2022-12-28T02:12:48.017Z,0.83
2022-12-28T02:15:22.769Z,1.33
2022-12-28T02:17:51.746Z,3.53
2022-12-28T02:20:21.211Z,0.43
2022-12-28T02:23:13.765Z,1.17
2022-12-28T02:26:25.391Z,3.07
2022-12-28T02:29:19.743Z,0.43
2022-12-28T02:31:53.933Z,0.73
2022-12-28T02:34:28.274Z,1.77
2022-12-28T02:37:02.573Z,2.00
2022-12-28T02:39:35.336Z,3.63
2022-12-28T02:42:05.469Z,0.73
2022-12-28T02:44:54.327Z,0.70
2022-12-28T02:47:36.148Z,1.40
2022-12-28T02:50:07.620Z,3.57
2022-12-28T02:53:19.962Z,0.83
2022-12-28T02:56:08.391Z,1.07
2022-12-28T02:58:58.489Z,1.10
2022-12-28T03:01:52.447Z,2.07
2022-12-28T03:04:29.363Z,1.10
2022-12-28T03:07:36.701Z,1.33
2022-12-28T03:10:15.690Z,1.57
2022-12-28T03:12:50.171Z,1.53
2022-12-28T03:15:34.547Z,0.73
2022-12-28T03:18:28.586Z,2.87
2022-12-28T03:21:17.935Z,1.37
2022-12-28T03:24:05.389Z,1.17
2022-12-28T03:26:53.370Z,4.00
2022-12-28T03:29:42.631Z,2.33
2022-12-28T03:32:11.373Z,3.00
2022-12-28T03:34:40.837Z,3.07
2022-12-28T03:37:18.599Z,3.03
2022-12-28T03:39:52.387Z,2.20
2022-12-28T03:42:45.509Z,1.43
2022-12-28T03:45:44.268Z,3.07
2022-12-28T03:48:08.442Z,2.13
2022-12-28T03:50:40.700Z,2.10
2022-12-28T03:53:09.300Z,1.80
2022-12-28T03:55:37.963Z,2.87
2022-12-28T03:58:06.280Z,3.90
2022-12-28T04:00:34.438Z,2.10
2022-12-28T04:03:02.417Z,2.47
2022-12-28T04:05:30.247Z,3.10
2022-12-28T04:07:59.631Z,1.90
2022-12-28T04:10:27.443Z,0.60
2022-12-28T04:12:56.865Z,1.17
2022-12-28T04:15:24.883Z,3.60
2022-12-28T04:17:52.711Z,1.70
2022-12-28T04:20:20.604Z,0.57
2022-12-28T04:22:48.558Z,2.40
2022-12-28T04:25:17.741Z,1.07
2022-12-28T04:27:45.583Z,1.30
2022-12-28T04:30:13.596Z,2.47
2022-12-28T04:32:41.392Z,1.07
2022-12-28T04:35:10.046Z,0.77
2022-12-28T04:37:38.132Z,4.67
2022-12-28T04:40:07.000Z,2.43
2022-12-28T04:42:36.178Z,3.43
2022-12-28T04:45:04.503Z,2.80
2022-12-28T04:47:32.337Z,1.73
2022-12-28T04:50:00.241Z,3.23
2022-12-28T04:52:28.155Z,1.33
2022-12-28T04:54:55.974Z,2.33
2022-12-28T04:57:23.793Z,2.07
2022-12-28T04:59:53.069Z,2.30
2022-12-28T05:02:21.083Z,3.80
2022-12-28T05:04:48.914Z,1.30
2022-12-28T05:07:16.807Z,0.83
2022-12-28T05:09:44.616Z,2.47
2022-12-28T05:12:12.458Z,1.43
2022-12-28T05:14:42.263Z,2.60
2022-12-28T05:17:11.479Z,1.83
2022-12-28T05:19:39.336Z,1.03
2022-12-28T05:22:11.848Z,1.13
2022-12-28T05:24:39.778Z,2.77
2022-12-28T05:27:07.759Z,1.17
2022-12-28T05:29:35.655Z,2.37
2022-12-28T05:32:03.486Z,1.47
2022-12-28T05:34:32.774Z,1.63
2022-12-28T05:37:00.810Z,1.40
2022-12-28T05:39:28.640Z,0.70
2022-12-28T05:42:00.116Z,2.10
2022-12-28T05:44:28.105Z,2.47
2022-12-28T05:46:56.040Z,2.90
2022-12-28T05:49:24.042Z,1.90
2022-12-28T05:51:53.336Z,3.07
2022-12-28T05:54:21.580Z,8.00
2022-12-28T05:56:51.975Z,1.33
2022-12-28T05:59:19.842Z,3.40
2022-12-28T06:01:47.766Z,2.13
2022-12-28T06:04:18.505Z,0.67
2022-12-28T06:06:47.433Z,2.03
2022-12-28T06:09:16.975Z,2.50
2022-12-28T06:11:45.970Z,2.90
2022-12-28T06:14:13.989Z,1.37
2022-12-28T06:16:43.474Z,2.27
2022-12-28T06:19:14.843Z,2.03
2022-12-28T06:21:43.650Z,3.43
2022-12-28T06:24:13.861Z,4.10
2022-12-28T06:26:43.122Z,1.97
2022-12-28T06:29:11.429Z,1.30
2022-12-28T06:31:41.568Z,3.17
2022-12-28T06:34:10.546Z,1.35
2022-12-28T06:36:40.561Z,2.40
2022-12-28T06:39:10.739Z,2.97
2022-12-28T06:41:39.301Z,1.77
2022-12-28T06:44:09.646Z,1.03
2022-12-28T06:46:38.361Z,3.80
2022-12-28T06:49:06.455Z,2.20
2022-12-28T06:51:36.432Z,3.43
2022-12-28T06:54:04.513Z,2.77
2022-12-28T06:56:34.750Z,1.80
2022-12-28T06:59:04.271Z,2.37
2022-12-28T07:01:35.965Z,2.17
2022-12-28T07:04:05.614Z,2.30
2022-12-28T07:06:38.112Z,1.10
2022-12-28T07:09:08.169Z,3.40
2022-12-28T07:11:36.345Z,5.40
2022-12-28T07:14:04.855Z,1.60
2022-12-28T07:19:07.124Z,3.83
2022-12-28T07:21:36.941Z,2.63
2022-12-28T07:24:06.095Z,3.90
2022-12-28T07:26:36.610Z,3.43
2022-12-28T07:29:06.204Z,2.63
2022-12-28T07:31:43.673Z,1.80
2022-12-28T07:34:14.368Z,1.63
2022-12-28T07:36:42.491Z,1.93
2022-12-28T07:39:10.569Z,1.90
2022-12-28T07:41:38.671Z,5.23
2022-12-28T07:44:07.380Z,4.20
2022-12-28T07:46:38.789Z,2.40
2022-12-28T07:49:07.780Z,2.70
2022-12-28T07:51:39.025Z,2.57
2022-12-28T07:54:07.842Z,2.23
2022-12-28T07:59:04.802Z,4.07
2022-12-28T08:01:34.891Z,3.00
2022-12-28T08:04:04.645Z,4.50
2022-12-28T08:06:36.764Z,5.80
2022-12-28T08:09:06.543Z,3.07
2022-12-28T08:11:36.439Z,3.00
2022-12-28T08:14:05.437Z,5.30
2022-12-28T08:16:35.198Z,4.63
2022-12-28T08:19:03.473Z,2.47
2022-12-28T08:21:33.788Z,4.73
2022-12-28T08:24:03.612Z,4.33
2022-12-28T08:26:33.126Z,4.33
2022-12-28T08:29:04.958Z,2.17
2022-12-28T08:31:35.167Z,2.93
2022-12-28T08:34:04.179Z,6.43
2022-12-28T08:36:32.558Z,2.77
2022-12-28T08:39:03.219Z,3.90
2022-12-28T08:41:31.820Z,3.17
2022-12-28T08:43:59.970Z,3.17
2022-12-28T08:46:30.045Z,2.23
2022-12-28T08:48:59.601Z,2.97
2022-12-28T08:51:32.614Z,6.97
2022-12-28T08:54:02.547Z,8.43
2022-12-28T08:56:32.341Z,3.33
2022-12-28T08:59:00.655Z,5.93
2022-12-28T09:01:30.227Z,3.97
2022-12-28T09:04:00.450Z,7.13
2022-12-28T09:06:33.070Z,4.07
2022-12-28T09:09:06.107Z,3.93
2022-12-28T09:11:34.694Z,3.97
2022-12-28T09:14:03.114Z,5.13
2022-12-28T09:16:31.252Z,3.77
2022-12-28T09:19:01.508Z,4.40
2022-12-28T09:21:31.495Z,4.63
2022-12-28T09:23:59.335Z,6.37
2022-12-28T09:26:31.197Z,5.77
2022-12-28T09:29:00.728Z,4.20
2022-12-28T09:31:30.322Z,4.97
2022-12-28T09:36:52.510Z,4.33
2022-12-28T09:39:24.808Z,4.63
2022-12-28T09:41:57.974Z,5.00
2022-12-28T09:44:39.810Z,3.23
2022-12-28T09:47:17.501Z,4.67
2022-12-28T09:49:53.817Z,5.80
2022-12-28T09:52:30.353Z,3.83
2022-12-28T09:55:06.428Z,5.27
2022-12-28T09:57:39.615Z,5.17
2022-12-28T10:00:17.001Z,6.03
2022-12-28T10:02:48.533Z,6.17
2022-12-28T10:05:16.808Z,6.57
2022-12-28T10:07:44.761Z,6.47
2022-12-28T10:10:17.262Z,5.27
2022-12-28T10:12:47.126Z,5.30
2022-12-28T10:15:16.736Z,2.50
2022-12-28T10:17:45.232Z,6.00
2022-12-28T10:20:17.152Z,7.33
2022-12-28T10:22:50.267Z,4.53
2022-12-28T10:25:20.867Z,8.87
2022-12-28T10:27:50.566Z,7.70
2022-12-28T10:30:21.474Z,8.40
2022-12-28T10:32:51.740Z,4.43
2022-12-28T10:35:27.766Z,3.70
2022-12-28T10:38:04.232Z,5.60
2022-12-28T10:40:35.063Z,3.37
2022-12-28T10:43:10.851Z,4.87
2022-12-28T10:45:47.344Z,3.77
2022-12-28T10:48:19.112Z,4.50
2022-12-28T10:50:52.916Z,5.57
2022-12-28T10:53:26.769Z,9.07
2022-12-28T10:56:24.459Z,7.60
2022-12-28T10:58:54.756Z,4.63
2022-12-28T11:01:26.965Z,4.73
2022-12-28T11:04:05.612Z,4.10
2022-12-28T11:06:35.721Z,6.27
2022-12-28T11:09:17.719Z,4.80
2022-12-28T11:11:47.332Z,10.77
2022-12-28T11:14:27.980Z,5.87
2022-12-28T11:16:56.206Z,4.70
2022-12-28T11:19:25.662Z,9.87
2022-12-28T11:21:53.871Z,8.77
2022-12-28T11:24:27.156Z,9.93
2022-12-28T11:26:55.289Z,10.47
2022-12-28T11:29:24.774Z,8.03
2022-12-28T11:32:01.009Z,8.00
2022-12-28T11:34:30.736Z,9.03
2022-12-28T11:36:59.724Z,4.97
2022-12-28T11:39:44.940Z,4.70
2022-12-28T11:42:38.924Z,5.63
2022-12-28T11:45:03.899Z,5.47
2022-12-28T11:47:36.515Z,4.73
2022-12-28T11:50:47.118Z,8.93
2022-12-28T11:53:48.627Z,5.80
2022-12-28T11:56:18.064Z,6.03
2022-12-28T11:58:48.830Z,6.73
2022-12-28T12:01:43.503Z,8.53
2022-12-28T12:04:46.283Z,4.67
2022-12-28T12:07:31.509Z,9.13
2022-12-28T12:10:28.579Z,8.60
2022-12-28T12:12:57.729Z,10.00
2022-12-28T12:15:41.660Z,9.20
2022-12-28T12:18:20.634Z,15.13
2022-12-28T12:20:54.712Z,9.63
2022-12-28T12:23:47.416Z,9.10
2022-12-28T12:26:28.147Z,5.20
2022-12-28T12:28:59.820Z,7.43
2022-12-28T12:31:32.154Z,8.13
2022-12-28T12:34:13.319Z,5.23
2022-12-28T12:37:18.143Z,7.80
2022-12-28T12:40:07.604Z,11.17
2022-12-28T12:42:44.637Z,6.47
2022-12-28T12:45:23.950Z,7.53
2022-12-28T12:48:19.104Z,6.93
2022-12-28T12:51:17.629Z,5.73
2022-12-28T12:53:59.375Z,10.00
2022-12-28T12:56:37.229Z,7.87
2022-12-28T12:59:33.373Z,7.50
2022-12-28T13:02:20.734Z,11.77
2022-12-28T13:04:49.279Z,5.17
2022-12-28T13:07:23.372Z,8.10
2022-12-28T13:09:54.451Z,7.80
2022-12-28T13:12:22.921Z,6.73
2022-12-28T13:14:58.151Z,7.60
2022-12-28T13:17:26.715Z,8.77
2022-12-28T13:20:09.394Z,5.33
2022-12-28T13:22:43.646Z,5.20
2022-12-28T13:25:24.544Z,7.13
2022-12-28T13:27:52.952Z,7.23
2022-12-28T13:30:22.504Z,8.20
2022-12-28T13:32:52.982Z,2.93
2022-12-28T13:35:22.859Z,5.13
2022-12-28T13:38:03.846Z,9.27
2022-12-28T13:40:33.177Z,5.60
2022-12-28T13:43:18.178Z,10.27
2022-12-28T13:45:50.927Z,10.83
2022-12-28T13:48:19.190Z,8.20
2022-12-28T13:50:47.389Z,6.27
2022-12-28T13:53:20.746Z,11.43
2022-12-28T13:55:52.631Z,8.17
2022-12-28T13:58:25.633Z,13.30
2022-12-28T14:00:56.522Z,8.27
2022-12-28T14:03:25.115Z,10.20
2022-12-28T14:05:55.889Z,13.77
2022-12-28T14:08:25.232Z,16.57
2022-12-28T14:10:53.718Z,13.47
2022-12-28T14:13:22.335Z,13.67
2022-12-28T14:15:51.002Z,14.00
2022-12-28T14:18:20.051Z,12.50
2022-12-28T14:20:49.313Z,12.90
2022-12-28T14:23:21.729Z,12.53
2022-12-28T14:25:52.497Z,10.73
2022-12-28T14:28:24.939Z,8.83
2022-12-28T14:30:54.676Z,8.87
2022-12-28T14:33:25.273Z,7.83
2022-12-28T14:35:56.273Z,10.80
2022-12-28T14:38:28.807Z,9.30
2022-12-28T14:41:00.574Z,9.27
2022-12-28T14:43:30.553Z,6.73
2022-12-28T14:46:16.529Z,8.23
2022-12-28T14:48:45.538Z,7.20
2022-12-28T14:51:28.591Z,9.63
2022-12-28T14:54:18.905Z,10.37
2022-12-28T14:56:53.311Z,10.13
2022-12-28T14:59:26.375Z,9.70
2022-12-28T15:01:54.505Z,10.93
2022-12-28T15:04:36.743Z,10.67
2022-12-28T15:07:05.660Z,10.10
2022-12-28T15:09:33.559Z,8.80
2022-12-28T15:12:17.758Z,9.90
2022-12-28T15:14:45.996Z,8.17
2022-12-28T15:17:14.741Z,8.27
2022-12-28T15:19:43.624Z,8.73
2022-12-28T15:22:11.648Z,13.60
2022-12-28T15:24:41.587Z,10.50
2022-12-28T15:27:09.466Z,11.20
2022-12-28T15:30:04.294Z,9.60
2022-12-28T15:32:26.558Z,8.67
2022-12-28T15:34:54.473Z,12.87
2022-12-28T15:37:22.346Z,8.83
2022-12-28T15:39:50.251Z,10.87
2022-12-28T15:42:18.193Z,8.07
2022-12-28T15:44:48.679Z,10.43
2022-12-28T15:47:16.565Z,9.23
2022-12-28T15:49:44.514Z,8.83
2022-12-28T15:52:12.389Z,8.70
2022-12-28T15:54:46.762Z,9.43
2022-12-28T15:57:15.837Z,8.93
2022-12-28T15:59:43.839Z,10.13
2022-12-28T16:02:13.492Z,7.73
2022-12-28T16:04:41.769Z,6.17
2022-12-28T16:07:09.821Z,7.13
2022-12-28T16:09:37.725Z,8.47
2022-12-28T16:12:06.060Z,8.07
2022-12-28T16:14:33.937Z,7.33
2022-12-28T16:17:01.816Z,5.07
2022-12-28T16:19:31.065Z,8.37
2022-12-28T16:21:58.909Z,8.70
2022-12-28T16:24:26.747Z,5.97
2022-12-28T16:26:54.776Z,7.63
2022-12-28T16:29:22.965Z,7.13
2022-12-28T16:31:52.424Z,6.57
2022-12-28T16:34:20.471Z,8.03
2022-12-28T16:36:49.982Z,7.03
2022-12-28T16:39:20.108Z,7.20
2022-12-28T16:41:48.055Z,10.13
2022-12-28T16:44:17.815Z,9.10
2022-12-28T16:46:45.870Z,6.57
2022-12-28T16:49:15.000Z,7.57
2022-12-28T16:51:46.285Z,7.40
2022-12-28T16:54:17.732Z,7.13
2022-12-28T16:56:45.871Z,7.00
2022-12-28T16:59:16.363Z,12.60
2022-12-28T17:01:44.950Z,9.73
2022-12-28T17:04:13.566Z,12.77
2022-12-28T17:06:42.975Z,10.60
2022-12-28T17:09:11.311Z,10.43
2022-12-28T17:11:40.615Z,9.00
2022-12-28T17:14:11.477Z,10.10
2022-12-28T17:16:40.183Z,8.00
2022-12-28T17:19:08.179Z,6.93
2022-12-28T17:21:36.145Z,9.50
2022-12-28T17:24:04.598Z,8.07
2022-12-28T17:26:32.574Z,8.67
2022-12-28T17:29:01.973Z,7.00
2022-12-28T17:31:30.008Z,10.27
2022-12-28T17:33:59.385Z,6.83
2022-12-28T17:36:27.554Z,11.23
2022-12-28T17:38:55.474Z,9.60
2022-12-28T17:41:25.610Z,5.80
2022-12-28T17:43:55.101Z,8.43
2022-12-28T17:46:26.134Z,8.30
2022-12-28T17:48:54.474Z,7.97
2022-12-28T17:51:23.889Z,6.73
2022-12-28T17:53:51.933Z,8.10
2022-12-28T17:56:19.753Z,12.17
2022-12-28T17:58:48.215Z,9.40
2022-12-28T18:01:16.370Z,9.87
2022-12-28T18:03:45.883Z,6.57
2022-12-28T18:06:14.006Z,7.30
2022-12-28T18:08:42.022Z,11.07
2022-12-28T18:11:11.341Z,8.57
2022-12-28T18:13:39.601Z,7.07
2022-12-28T18:16:09.237Z,6.90
2022-12-28T18:18:37.403Z,10.33
2022-12-28T18:21:09.487Z,9.00
2022-12-28T18:23:37.673Z,9.83
2022-12-28T18:26:07.566Z,7.20
2022-12-28T18:28:36.687Z,10.23
2022-12-28T18:31:05.991Z,7.80
2022-12-28T18:33:34.795Z,8.43
2022-12-28T18:36:03.820Z,10.63
2022-12-28T18:38:33.470Z,5.30
2022-12-28T18:41:01.314Z,7.70
2022-12-28T18:43:29.495Z,7.87
2022-12-28T18:45:59.329Z,5.83
2022-12-28T18:48:27.937Z,6.83
2022-12-28T18:50:57.102Z,7.67
2022-12-28T18:53:26.097Z,5.87
2022-12-28T18:55:59.657Z,3.93
2022-12-28T18:58:28.528Z,8.30
2022-12-28T19:01:03.327Z,8.50
2022-12-28T19:03:31.519Z,7.37
2022-12-28T19:06:02.989Z,6.07
2022-12-28T19:08:31.997Z,5.63
2022-12-28T19:11:02.273Z,4.50
2022-12-28T19:13:35.189Z,6.00
2022-12-28T19:16:04.487Z,4.20
2022-12-28T19:18:32.597Z,11.70
2022-12-28T19:21:16.517Z,6.10
2022-12-28T19:23:44.524Z,5.77
2022-12-28T19:26:13.854Z,5.67
2022-12-28T19:28:41.739Z,5.33
2022-12-28T19:31:09.717Z,4.77
2022-12-28T19:33:37.856Z,5.33
2022-12-28T19:36:06.239Z,7.47
2022-12-28T19:38:34.188Z,5.40
2022-12-28T19:41:06.102Z,5.33
2022-12-28T19:43:35.597Z,2.90
2022-12-28T19:46:05.340Z,4.83
2022-12-28T19:48:33.258Z,3.17
2022-12-28T19:51:01.504Z,4.67
2022-12-28T19:53:30.351Z,2.63
2022-12-28T19:55:59.563Z,5.47
2022-12-28T19:58:27.384Z,4.63
2022-12-28T20:00:56.762Z,3.00
2022-12-28T20:03:24.899Z,1.70
2022-12-28T20:05:52.834Z,3.17
2022-12-28T20:08:20.684Z,1.80
2022-12-28T20:10:56.452Z,2.23
2022-12-28T20:13:24.399Z,3.33
2022-12-28T20:15:52.477Z,2.27
2022-12-28T20:18:21.735Z,5.80
2022-12-28T20:21:17.952Z,2.00
2022-12-28T20:23:37.916Z,2.03
2022-12-28T20:26:06.006Z,2.87
2022-12-28T20:28:34.630Z,5.63
2022-12-28T20:31:02.857Z,2.60
2022-12-28T20:33:33.558Z,5.30
2022-12-28T20:36:03.326Z,4.37
2022-12-28T20:38:31.746Z,3.10
2022-12-28T20:41:04.141Z,3.60
2022-12-28T20:43:31.725Z,1.77
2022-12-28T20:46:00.219Z,2.20
2022-12-28T20:48:28.520Z,1.33
2022-12-28T20:50:59.372Z,2.67
2022-12-28T20:53:28.012Z,3.57
2022-12-28T20:55:55.937Z,2.03
2022-12-28T20:58:23.971Z,2.63
2022-12-28T21:00:51.844Z,2.90
2022-12-28T21:03:19.763Z,3.63
2022-12-28T21:05:47.640Z,1.30
2022-12-28T21:08:16.864Z,3.53
2022-12-28T21:10:48.099Z,1.83
2022-12-28T21:13:16.089Z,3.33
2022-12-28T21:15:44.546Z,1.67
2022-12-28T21:18:12.541Z,1.17
2022-12-28T21:20:46.002Z,3.53
2022-12-28T21:23:14.008Z,2.30
2022-12-28T21:25:43.225Z,1.63
2022-12-28T21:28:12.269Z,2.73
2022-12-28T21:30:40.262Z,4.77
2022-12-28T21:33:08.067Z,1.93
2022-12-28T21:35:36.115Z,0.60
2022-12-28T21:38:06.151Z,3.67
2022-12-28T21:40:33.958Z,2.43
2022-12-28T21:43:03.234Z,1.90
2022-12-28T21:45:31.222Z,1.10
2022-12-28T21:47:59.138Z,1.67
2022-12-28T21:50:26.947Z,6.40
2022-12-28T21:52:54.854Z,3.33
2022-12-28T21:55:40.289Z,1.67
2022-12-28T21:58:09.847Z,2.70
2022-12-28T22:00:55.485Z,2.27
2022-12-28T22:03:43.571Z,0.97
2022-12-28T22:06:12.843Z,2.40
2022-12-28T22:08:58.371Z,3.30
2022-12-28T22:11:43.753Z,2.30
2022-12-28T22:14:13.047Z,3.87
2022-12-28T22:16:40.965Z,2.00
2022-12-28T22:19:08.807Z,2.37
2022-12-28T22:21:37.129Z,3.73
2022-12-28T22:24:05.256Z,3.07
2022-12-28T22:26:33.065Z,5.90
2022-12-28T22:29:03.653Z,2.23
2022-12-28T22:31:33.011Z,5.00
2022-12-28T22:34:06.838Z,3.63
2022-12-28T22:36:35.571Z,4.90
2022-12-28T22:39:03.391Z,4.70
2022-12-28T22:41:31.210Z,4.47
2022-12-28T22:43:59.159Z,7.03
2022-12-28T22:46:27.009Z,7.97
2022-12-28T22:48:56.214Z,7.67
2022-12-28T22:51:24.261Z,7.90
2022-12-28T22:53:52.108Z,10.50
2022-12-28T22:56:21.068Z,9.03
2022-12-28T22:58:49.419Z,9.40
2022-12-28T23:01:19.838Z,14.57
2022-12-28T23:03:49.233Z,25.33
2022-12-28T23:06:20.314Z,51.00
2022-12-28T23:08:48.524Z,41.80
2022-12-28T23:11:34.644Z,21.50
2022-12-28T23:14:23.486Z,21.80
2022-12-28T23:16:50.638Z,43.97
2022-12-28T23:19:36.298Z,16.77
2022-12-28T23:22:25.101Z,33.90
2022-12-28T23:25:10.209Z,19.37
2022-12-28T23:27:40.504Z,18.13
2022-12-28T23:30:12.095Z,52.40
2022-12-28T23:32:40.034Z,39.53
2022-12-28T23:35:08.305Z,41.33
2022-12-28T23:37:37.612Z,91.47
2022-12-28T23:40:06.042Z,109.20
2022-12-28T23:42:33.951Z,94.23
2022-12-28T23:45:01.928Z,97.90
2022-12-28T23:47:30.482Z,47.07
2022-12-28T23:49:58.678Z,40.27
2022-12-28T23:52:26.771Z,184.53
2022-12-28T23:54:56.033Z,123.17
2022-12-28T23:57:24.277Z,82.47
2022-12-28T23:59:52.403Z,68.33
